Time,TemperatureF,DewpointF,PressureIn,WindDirection,WindDirectionDegrees,WindSpeedMPH,WindSpeedGustMPH,Humidity,HourlyPrecipIn,Conditions,Clouds,dailyrainin,SoftwareType,DateUTC
2013-07-15 00:00:00,64.1,61.4,29.99,NE,47,1.0,1.0,91,0.00,,,0.70,Wunderground v.1.15,2013-07-15 05:00:00,
2013-07-15 00:05:00,64.1,61.1,29.99,NE,47,0.0,1.0,90,0.00,,,0.70,Wunderground v.1.15,2013-07-15 05:05:00,
2013-07-15 00:10:00,64.2,61.5,29.99,NE,47,0.0,0.0,91,0.00,,,0.70,Wunderground v.1.15,2013-07-15 05:10:00,
2013-07-15 00:15:00,64.5,61.8,30.00,NE,47,0.0,0.0,91,0.00,,,0.70,Wunderground v.1.15,2013-07-15 05:15:00,
2013-07-15 00:25:00,64.3,61.6,30.00,South,188,3.0,3.0,91,0.00,,,0.70,Wunderground v.1.15,2013-07-15 05:25:00,
2013-07-15 00:35:00,64.1,61.7,30.00,South,188,1.0,2.0,92,0.00,,,0.00,Wunderground v.1.15,2013-07-15 05:35:00,
2013-07-15 00:40:00,64.2,61.8,30.00,South,186,1.0,1.0,92,0.00,,,0.00,Wunderground v.1.15,2013-07-15 05:40:00,
2013-07-15 00:50:00,64.2,61.8,30.00,South,186,0.0,1.0,92,0.00,,,0.00,Wunderground v.1.15,2013-07-15 05:50:00,
2013-07-15 00:55:00,64.3,61.9,30.00,South,186,0.0,1.0,92,0.00,,,0.00,Wunderground v.1.15,2013-07-15 05:55:00,
2013-07-15 01:00:00,64.2,61.8,30.00,South,186,0.0,0.0,92,0.00,,,0.00,Wunderground v.1.15,2013-07-15 06:00:00,
2013-07-15 01:05:00,64.1,61.4,30.00,South,186,0.0,0.0,91,0.00,,,0.00,Wunderground v.1.15,2013-07-15 06:05:00,
2013-07-15 01:10:00,64.2,61.8,30.00,South,186,0.0,0.0,92,0.00,,,0.00,Wunderground v.1.15,2013-07-15 06:10:00,
2013-07-15 01:15:00,64.2,61.8,30.00,SSE,153,1.0,2.0,92,0.00,,,0.00,Wunderground v.1.15,2013-07-15 06:15:00,
2013-07-15 01:25:00,64.5,62.1,29.99,SSE,153,1.0,1.0,92,0.00,,,0.00,Wunderground v.1.15,2013-07-15 06:25:00,
2013-07-15 01:30:00,64.5,62.1,29.99,SSE,153,1.0,1.0,92,0.00,,,0.00,Wunderground v.1.15,2013-07-15 06:30:00,
2013-07-15 01:35:00,64.6,62.2,29.99,SSE,153,1.0,1.0,92,0.00,,,0.00,Wunderground v.1.15,2013-07-15 06:35:00,
2013-07-15 01:45:00,64.7,62.3,29.99,SSE,153,2.0,2.0,92,0.00,,,0.00,Wunderground v.1.15,2013-07-15 06:45:00,
2013-07-15 01:50:00,64.8,62.4,30.00,SSE,153,2.0,3.0,92,0.00,,,0.00,Wunderground v.1.15,2013-07-15 06:50:00,
2013-07-15 02:00:00,64.7,62.3,30.00,NE,47,3.0,3.0,92,0.00,,,0.00,Wunderground v.1.15,2013-07-15 07:00:00,
2013-07-15 02:05:00,64.6,62.5,30.00,NE,48,3.0,3.0,93,0.00,,,0.00,Wunderground v.1.15,2013-07-15 07:05:00,
2013-07-15 02:10:00,64.6,62.5,30.00,NE,36,3.0,5.0,93,0.00,,,0.00,Wunderground v.1.15,2013-07-15 07:10:00,
2013-07-15 02:15:00,64.4,62.3,30.00,NE,47,3.0,5.0,93,0.00,,,0.00,Wunderground v.1.15,2013-07-15 07:15:00,
2013-07-15 02:20:00,64.1,62.0,30.00,NE,40,4.0,7.0,93,0.00,,,0.00,Wunderground v.1.15,2013-07-15 07:20:00,
2013-07-15 02:30:00,64.2,62.1,30.00,North,10,4.0,4.0,93,0.00,,,0.01,Wunderground v.1.15,2013-07-15 07:30:00,
2013-07-15 02:35:00,64.2,62.1,30.00,NE,40,3.0,5.0,93,0.00,,,0.01,Wunderground v.1.15,2013-07-15 07:35:00,
2013-07-15 02:45:00,63.9,61.8,30.00,NE,47,4.0,6.0,93,0.00,,,0.01,Wunderground v.1.15,2013-07-15 07:45:00,
2013-07-15 02:50:00,64.0,61.6,30.00,NE,38,4.0,5.0,92,0.00,,,0.01,Wunderground v.1.15,2013-07-15 07:50:00,
2013-07-15 02:55:00,64.1,61.7,30.00,NNE,31,4.0,5.0,92,0.00,,,0.01,Wunderground v.1.15,2013-07-15 07:55:00,
2013-07-15 03:00:00,64.0,61.6,30.00,ENE,68,4.0,7.0,92,0.00,,,0.01,Wunderground v.1.15,2013-07-15 08:00:00,
2013-07-15 03:05:00,63.8,61.4,30.00,NNE,26,6.0,7.0,92,0.00,,,0.02,Wunderground v.1.15,2013-07-15 08:05:00,
2013-07-15 03:15:00,63.5,60.8,29.99,NE,46,6.0,9.0,91,0.27,,,0.05,Wunderground v.1.15,2013-07-15 08:15:00,
2013-07-15 03:25:00,63.3,60.9,29.99,North,5,5.0,6.0,92,0.09,,,0.09,Wunderground v.1.15,2013-07-15 08:25:00,
2013-07-15 03:30:00,63.2,61.1,29.98,NNE,31,4.0,4.0,93,0.05,,,0.09,Wunderground v.1.15,2013-07-15 08:30:00,
2013-07-15 03:40:00,63.0,60.9,29.99,NNE,28,5.0,6.0,93,0.00,,,0.09,Wunderground v.1.15,2013-07-15 08:40:00,
2013-07-15 03:50:00,63.0,60.9,29.99,NE,40,5.0,7.0,93,0.00,,,0.09,Wunderground v.1.15,2013-07-15 08:50:00,
2013-07-15 03:55:00,63.1,61.3,29.99,NNE,30,4.0,7.0,94,0.00,,,0.09,Wunderground v.1.15,2013-07-15 08:55:00,
2013-07-15 04:00:00,63.2,61.4,29.98,NNE,24,5.0,7.0,94,0.00,,,0.09,Wunderground v.1.15,2013-07-15 09:00:00,
2013-07-15 04:05:00,63.3,61.5,29.99,NNE,18,5.0,9.0,94,0.00,,,0.09,Wunderground v.1.15,2013-07-15 09:05:00,
2013-07-15 04:10:00,63.2,61.4,29.99,North,355,5.0,5.0,94,0.00,,,0.09,Wunderground v.1.15,2013-07-15 09:10:00,
2013-07-15 04:15:00,63.3,61.5,29.99,North,5,5.0,5.0,94,0.00,,,0.09,Wunderground v.1.15,2013-07-15 09:15:00,
2013-07-15 04:20:00,63.4,61.6,29.99,North,355,5.0,6.0,94,0.00,,,0.09,Wunderground v.1.15,2013-07-15 09:20:00,
2013-07-15 04:30:00,63.6,61.8,29.99,North,5,5.0,6.0,94,0.00,,,0.10,Wunderground v.1.15,2013-07-15 09:30:00,
2013-07-15 04:35:00,63.6,61.8,29.99,NNE,12,5.0,8.0,94,0.00,,,0.10,Wunderground v.1.15,2013-07-15 09:35:00,
2013-07-15 04:40:00,63.5,61.7,29.98,NNE,14,6.0,6.0,94,0.00,,,0.10,Wunderground v.1.15,2013-07-15 09:40:00,
2013-07-15 04:45:00,63.5,61.7,29.99,NNE,33,6.0,6.0,94,0.00,,,0.10,Wunderground v.1.15,2013-07-15 09:45:00,
2013-07-15 04:50:00,63.4,61.6,29.99,NE,46,5.0,5.0,94,0.00,,,0.10,Wunderground v.1.15,2013-07-15 09:50:00,
2013-07-15 05:00:00,63.2,61.4,29.99,NNE,26,4.0,7.0,94,0.96,,,0.23,Wunderground v.1.15,2013-07-15 10:00:00,
2013-07-15 05:05:00,63.1,61.3,29.99,NNE,28,5.0,7.0,94,1.38,,,0.31,Wunderground v.1.15,2013-07-15 10:05:00,
2013-07-15 05:15:00,62.9,61.4,29.99,NE,36,5.0,5.0,95,2.26,,,0.56,Wunderground v.1.15,2013-07-15 10:15:00,
2013-07-15 05:20:00,62.8,61.3,30.00,NE,34,5.0,5.0,95,0.34,,,0.63,Wunderground v.1.15,2013-07-15 10:20:00,
2013-07-15 05:30:00,62.8,61.3,29.99,NNE,27,5.0,5.0,95,0.09,,,0.65,Wunderground v.1.15,2013-07-15 10:30:00,
2013-07-15 05:40:00,62.9,61.4,30.00,ENE,61,3.0,3.0,95,0.06,,,0.66,Wunderground v.1.15,2013-07-15 10:40:00,
2013-07-15 05:45:00,62.9,61.4,29.99,ENE,61,1.0,3.0,95,0.05,,,0.66,Wunderground v.1.15,2013-07-15 10:45:00,
2013-07-15 05:50:00,62.9,61.4,29.99,NNE,24,1.0,1.0,95,0.04,,,0.66,Wunderground v.1.15,2013-07-15 10:50:00,
2013-07-15 05:55:00,63.0,61.8,30.00,ENE,66,1.0,1.0,96,0.00,,,0.66,Wunderground v.1.15,2013-07-15 10:55:00,
2013-07-15 06:00:00,63.0,61.8,30.00,ENE,67,1.0,1.0,96,0.00,,,0.66,Wunderground v.1.15,2013-07-15 11:00:00,
2013-07-15 06:10:00,63.0,61.8,30.01,East,88,1.0,1.0,96,0.15,,,0.68,Wunderground v.1.15,2013-07-15 11:10:00,
2013-07-15 06:15:00,63.1,61.9,30.01,SE,126,0.0,1.0,96,0.41,,,0.70,Wunderground v.1.15,2013-07-15 11:15:00,
2013-07-15 06:20:00,63.1,61.9,30.01,SE,126,0.0,0.0,96,0.22,,,0.72,Wunderground v.1.15,2013-07-15 11:20:00,
2013-07-15 06:25:00,63.0,61.8,30.01,SE,126,0.0,0.0,96,0.18,,,0.74,Wunderground v.1.15,2013-07-15 11:25:00,
2013-07-15 06:35:00,62.9,61.7,30.02,SE,142,0.0,1.0,96,0.16,,,0.77,Wunderground v.1.15,2013-07-15 11:35:00,
2013-07-15 06:40:00,63.1,61.9,30.02,SE,142,0.0,0.0,96,0.27,,,0.79,Wunderground v.1.15,2013-07-15 11:40:00,
2013-07-15 06:45:00,63.2,62.0,30.01,NNW,330,1.0,1.0,96,0.25,,,0.81,Wunderground v.1.15,2013-07-15 11:45:00,
2013-07-15 06:50:00,63.2,62.0,30.01,NNW,346,2.0,2.0,96,0.17,,,0.83,Wunderground v.1.15,2013-07-15 11:50:00,
2013-07-15 06:55:00,63.2,62.0,30.02,NW,321,1.0,2.0,96,0.26,,,0.86,Wunderground v.1.15,2013-07-15 11:55:00,
2013-07-15 07:00:00,63.2,62.0,30.02,WNW,292,1.0,3.0,96,0.50,,,0.91,Wunderground v.1.15,2013-07-15 12:00:00,
2013-07-15 07:05:00,63.0,61.8,30.02,WNW,289,1.0,3.0,96,0.21,,,0.93,Wunderground v.1.15,2013-07-15 12:05:00,
2013-07-15 07:15:00,62.8,61.6,30.02,NNW,338,2.0,3.0,96,0.24,,,0.97,Wunderground v.1.15,2013-07-15 12:15:00,
2013-07-15 07:25:00,62.6,61.4,30.02,NNW,330,3.0,3.0,96,0.07,,,0.98,Wunderground v.1.15,2013-07-15 12:25:00,
2013-07-15 07:30:00,62.5,61.3,30.02,North,355,2.0,4.0,96,0.07,,,0.98,Wunderground v.1.15,2013-07-15 12:30:00,
2013-07-15 07:35:00,62.5,61.3,30.02,NNW,333,3.0,4.0,96,0.05,,,0.98,Wunderground v.1.15,2013-07-15 12:35:00,
2013-07-15 07:45:00,62.3,61.1,30.02,NNW,336,3.0,3.0,96,0.00,,,0.98,Wunderground v.1.15,2013-07-15 12:45:00,
2013-07-15 07:50:00,62.4,61.2,30.02,NNW,331,3.0,4.0,96,0.00,,,0.98,Wunderground v.1.15,2013-07-15 12:50:00,
2013-07-15 07:55:00,62.5,61.3,30.02,North,350,2.0,4.0,96,0.00,,,0.98,Wunderground v.1.15,2013-07-15 12:55:00,
2013-07-15 08:00:00,62.6,61.4,30.03,NNW,348,2.0,2.0,96,0.00,,,0.98,Wunderground v.1.15,2013-07-15 13:00:00,
2013-07-15 08:10:00,62.9,61.7,30.03,North,5,3.0,3.0,96,0.00,,,0.98,Wunderground v.1.15,2013-07-15 13:10:00,
2013-07-15 08:20:00,63.2,62.0,30.03,North,5,2.0,2.0,96,0.00,,,0.98,Wunderground v.1.15,2013-07-15 13:20:00,
2013-07-15 08:25:00,63.2,62.0,30.04,North,5,1.0,2.0,96,0.00,,,0.98,Wunderground v.1.15,2013-07-15 13:25:00,
2013-07-15 08:30:00,63.3,62.1,30.04,North,5,1.0,2.0,96,0.00,,,0.98,Wunderground v.1.15,2013-07-15 13:30:00,
2013-07-15 08:35:00,63.3,62.1,30.04,North,5,1.0,2.0,96,0.00,,,0.98,Wunderground v.1.15,2013-07-15 13:35:00,
2013-07-15 08:45:00,63.4,62.2,30.04,North,355,1.0,1.0,96,0.00,,,0.98,Wunderground v.1.15,2013-07-15 13:45:00,
2013-07-15 08:50:00,63.5,62.3,30.04,North,355,1.0,2.0,96,0.00,,,0.99,Wunderground v.1.15,2013-07-15 13:50:00,
2013-07-15 09:00:00,63.8,62.6,30.05,North,355,1.0,1.0,96,0.10,,,1.00,Wunderground v.1.15,2013-07-15 14:00:00,
2013-07-15 09:05:00,64.0,62.8,30.05,North,355,0.0,1.0,96,0.05,,,1.00,Wunderground v.1.15,2013-07-15 14:05:00,
2013-07-15 09:10:00,64.1,62.9,30.05,North,355,0.0,0.0,96,0.05,,,1.01,Wunderground v.1.15,2013-07-15 14:10:00,
2013-07-15 09:15:00,64.3,63.1,30.05,North,355,0.0,0.0,96,0.10,,,1.02,Wunderground v.1.15,2013-07-15 14:15:00,
2013-07-15 09:25:00,64.3,63.1,30.05,North,355,1.0,2.0,96,0.04,,,1.02,Wunderground v.1.15,2013-07-15 14:25:00,
2013-07-15 09:30:00,64.5,63.3,30.05,North,355,1.0,1.0,96,0.00,,,1.02,Wunderground v.1.15,2013-07-15 14:30:00,
2013-07-15 09:35:00,65.0,63.8,30.05,North,355,1.0,1.0,96,0.00,,,1.02,Wunderground v.1.15,2013-07-15 14:35:00,
2013-07-15 09:40:00,65.7,64.8,30.05,ENE,57,0.0,2.0,97,0.00,,,1.02,Wunderground v.1.15,2013-07-15 14:40:00,
2013-07-15 09:45:00,65.6,64.4,30.05,ENE,57,1.0,2.0,96,0.00,,,1.02,Wunderground v.1.15,2013-07-15 14:45:00,
2013-07-15 09:50:00,65.6,64.4,30.05,ENE,58,1.0,1.0,96,0.00,,,1.02,Wunderground v.1.15,2013-07-15 14:50:00,
2013-07-15 09:55:00,65.9,64.7,30.05,ENE,58,1.0,1.0,96,0.00,,,1.02,Wunderground v.1.15,2013-07-15 14:55:00,
2013-07-15 10:05:00,66.3,64.8,30.05,ENE,74,1.0,2.0,95,0.00,,,1.02,Wunderground v.1.15,2013-07-15 15:05:00,
2013-07-15 10:15:00,66.8,65.3,30.05,SE,127,2.0,2.0,95,0.00,,,1.02,Wunderground v.1.15,2013-07-15 15:15:00,
2013-07-15 10:30:00,66.8,64.7,30.06,SE,132,3.0,4.0,93,0.00,,,1.02,Wunderground v.1.15,2013-07-15 15:30:00,
2013-07-15 10:35:00,66.8,64.7,30.06,SE,134,3.0,4.0,93,0.00,,,1.02,Wunderground v.1.15,2013-07-15 15:35:00,
2013-07-15 10:40:00,66.9,65.1,30.06,SE,131,3.0,3.0,94,0.00,,,1.02,Wunderground v.1.15,2013-07-15 15:40:00,
2013-07-15 10:45:00,67.2,65.4,30.06,SSE,148,3.0,4.0,94,0.00,,,1.02,Wunderground v.1.15,2013-07-15 15:45:00,
2013-07-15 10:50:00,67.2,65.1,30.06,SE,134,4.0,4.0,93,0.00,,,1.02,Wunderground v.1.15,2013-07-15 15:50:00,
2013-07-15 11:00:00,67.1,65.0,30.05,SE,131,3.0,3.0,93,0.00,,,1.03,Wunderground v.1.15,2013-07-15 16:00:00,
2013-07-15 11:10:00,67.2,65.1,30.06,SE,126,3.0,6.0,93,0.06,,,1.04,Wunderground v.1.15,2013-07-15 16:10:00,
2013-07-15 11:20:00,67.3,65.2,30.06,ESE,116,5.0,5.0,93,0.04,,,1.04,Wunderground v.1.15,2013-07-15 16:20:00,
2013-07-15 11:25:00,67.7,65.9,30.06,SE,144,5.0,5.0,94,0.00,,,1.04,Wunderground v.1.15,2013-07-15 16:25:00,
2013-07-15 11:30:00,67.5,65.4,30.07,SSE,165,5.0,5.0,93,0.00,,,1.04,Wunderground v.1.15,2013-07-15 16:30:00,
2013-07-15 11:35:00,67.6,65.5,30.07,SSW,195,6.0,7.0,93,0.00,,,1.04,Wunderground v.1.15,2013-07-15 16:35:00,
2013-07-15 11:45:00,68.5,66.4,30.07,South,188,5.0,7.0,93,0.00,,,1.04,Wunderground v.1.15,2013-07-15 16:45:00,
2013-07-15 11:50:00,68.4,66.0,30.07,South,184,6.0,7.0,92,0.00,,,1.04,Wunderground v.1.15,2013-07-15 16:50:00,
2013-07-15 11:55:00,68.5,66.4,30.07,South,180,7.0,7.0,93,0.00,,,1.04,Wunderground v.1.15,2013-07-15 16:55:00,
2013-07-15 12:00:00,68.7,66.3,30.08,South,174,6.0,7.0,92,0.00,,,1.04,Wunderground v.1.15,2013-07-15 17:00:00,
2013-07-15 12:10:00,68.4,66.0,30.07,SSE,168,6.0,6.0,92,0.00,,,1.04,Wunderground v.1.15,2013-07-15 17:10:00,
2013-07-15 12:15:00,68.4,66.0,30.07,SSW,192,5.0,6.0,92,0.00,,,1.04,Wunderground v.1.15,2013-07-15 17:15:00,
2013-07-15 12:25:00,68.4,66.0,30.07,South,191,4.0,5.0,92,0.00,,,1.04,Wunderground v.1.15,2013-07-15 17:25:00,
2013-07-15 12:30:00,68.4,66.0,30.07,SSE,161,3.0,3.0,92,0.00,,,1.04,Wunderground v.1.15,2013-07-15 17:30:00,
2013-07-15 12:35:00,68.5,66.1,30.07,SSE,163,4.0,6.0,92,0.00,,,1.04,Wunderground v.1.15,2013-07-15 17:35:00,
2013-07-15 12:40:00,68.7,66.3,30.08,SSE,162,5.0,5.0,92,0.00,,,1.04,Wunderground v.1.15,2013-07-15 17:40:00,
2013-07-15 12:45:00,68.8,66.1,30.07,SSE,161,5.0,5.0,91,0.00,,,1.04,Wunderground v.1.15,2013-07-15 17:45:00,
2013-07-15 12:50:00,69.2,66.5,30.08,ESE,111,4.0,5.0,91,0.00,,,1.04,Wunderground v.1.15,2013-07-15 17:50:00,
2013-07-15 12:55:00,69.2,66.5,30.08,SE,130,4.0,7.0,91,0.00,,,1.04,Wunderground v.1.15,2013-07-15 17:55:00,
2013-07-15 13:05:00,69.2,66.1,30.08,ESE,123,6.0,6.0,90,0.00,,,1.04,Wunderground v.1.15,2013-07-15 18:05:00,
2013-07-15 13:10:00,69.3,66.6,30.08,SE,128,5.0,7.0,91,0.00,,,1.04,Wunderground v.1.15,2013-07-15 18:10:00,
2013-07-15 13:15:00,69.4,66.7,30.08,SE,140,4.0,7.0,91,0.00,,,1.04,Wunderground v.1.15,2013-07-15 18:15:00,
2013-07-15 13:20:00,69.4,66.3,30.08,SE,134,5.0,5.0,90,0.00,,,1.04,Wunderground v.1.15,2013-07-15 18:20:00,
2013-07-15 13:25:00,69.5,66.8,30.08,SE,132,6.0,7.0,91,0.00,,,1.04,Wunderground v.1.15,2013-07-15 18:25:00,
2013-07-15 13:30:00,69.5,66.4,30.07,SSE,151,6.0,6.0,90,0.00,,,1.04,Wunderground v.1.15,2013-07-15 18:30:00,
2013-07-15 13:40:00,69.9,67.2,30.07,SE,131,5.0,6.0,91,0.00,,,1.04,Wunderground v.1.15,2013-07-15 18:40:00,
2013-07-15 13:45:00,70.3,67.2,30.06,SSE,150,4.0,6.0,90,0.00,,,1.04,Wunderground v.1.15,2013-07-15 18:45:00,
2013-07-15 13:55:00,70.9,67.2,30.06,SE,131,4.0,5.0,88,0.00,,,1.04,Wunderground v.1.15,2013-07-15 18:55:00,
2013-07-15 14:00:00,71.0,67.3,30.06,SSE,155,4.0,4.0,88,0.00,,,1.04,Wunderground v.1.15,2013-07-15 19:00:00,
2013-07-15 14:10:00,71.8,67.4,30.06,SSE,159,3.0,4.0,86,0.00,,,1.04,Wunderground v.1.15,2013-07-15 19:10:00,
2013-07-15 14:15:00,72.1,67.3,30.06,SSE,147,4.0,4.0,85,0.00,,,1.04,Wunderground v.1.15,2013-07-15 19:15:00,
2013-07-15 14:25:00,72.6,67.5,30.07,ESE,121,4.0,6.0,84,0.00,,,1.04,Wunderground v.1.15,2013-07-15 19:25:00,
2013-07-15 14:30:00,72.8,67.7,30.07,South,174,5.0,7.0,84,0.00,,,1.04,Wunderground v.1.15,2013-07-15 19:30:00,
2013-07-15 14:40:00,73.3,67.8,30.07,SE,130,4.0,4.0,83,0.00,,,1.04,Wunderground v.1.15,2013-07-15 19:40:00,
2013-07-15 14:45:00,73.2,67.7,30.07,SSE,150,4.0,8.0,83,0.00,,,1.04,Wunderground v.1.15,2013-07-15 19:45:00,
2013-07-15 14:50:00,73.0,67.2,30.07,SSE,148,6.0,9.0,82,0.00,,,1.04,Wunderground v.1.15,2013-07-15 19:50:00,
2013-07-15 15:00:00,72.9,67.4,30.07,SSE,165,5.0,5.0,83,0.00,,,1.04,Wunderground v.1.15,2013-07-15 20:00:00,
2013-07-15 15:05:00,72.8,67.3,30.07,ESE,121,4.0,5.0,83,0.00,,,1.04,Wunderground v.1.15,2013-07-15 20:05:00,
2013-07-15 15:10:00,72.8,67.3,30.07,SE,137,5.0,6.0,83,0.00,,,1.04,Wunderground v.1.15,2013-07-15 20:10:00,
2013-07-15 15:15:00,72.8,67.3,30.07,ESE,121,4.0,6.0,83,0.00,,,1.04,Wunderground v.1.15,2013-07-15 20:15:00,
2013-07-15 15:20:00,72.5,67.0,30.07,SE,138,5.0,5.0,83,0.00,,,1.04,Wunderground v.1.15,2013-07-15 20:20:00,
2013-07-15 15:25:00,72.3,67.5,30.07,SE,126,5.0,6.0,85,0.00,,,1.05,Wunderground v.1.15,2013-07-15 20:25:00,
2013-07-15 15:35:00,71.9,67.8,30.06,SE,136,3.0,4.0,87,0.00,,,1.05,Wunderground v.1.15,2013-07-15 20:35:00,
2013-07-15 15:40:00,71.8,67.7,30.06,SE,134,3.0,4.0,87,0.04,,,1.06,Wunderground v.1.15,2013-07-15 20:40:00,
2013-07-15 15:45:00,71.7,68.0,30.06,ESE,123,3.0,5.0,88,0.04,,,1.06,Wunderground v.1.15,2013-07-15 20:45:00,
2013-07-15 15:50:00,71.6,67.9,30.06,ESE,103,3.0,3.0,88,0.04,,,1.06,Wunderground v.1.15,2013-07-15 20:50:00,
2013-07-15 15:55:00,71.6,68.2,30.06,East,94,3.0,3.0,89,0.04,,,1.07,Wunderground v.1.15,2013-07-15 20:55:00,
2013-07-15 16:00:00,71.6,68.5,30.06,ESE,111,3.0,3.0,90,0.04,,,1.07,Wunderground v.1.15,2013-07-15 21:00:00,
2013-07-15 16:05:00,71.6,68.5,30.06,SSE,151,2.0,5.0,90,0.04,,,1.07,Wunderground v.1.15,2013-07-15 21:05:00,
2013-07-15 16:15:00,71.5,68.4,30.06,SE,132,5.0,5.0,90,0.00,,,1.07,Wunderground v.1.15,2013-07-15 21:15:00,
2013-07-15 16:20:00,71.5,68.1,30.06,ESE,118,5.0,5.0,89,0.00,,,1.07,Wunderground v.1.15,2013-07-15 21:20:00,
2013-07-15 16:25:00,71.4,68.0,30.06,SE,134,4.0,7.0,89,0.00,,,1.07,Wunderground v.1.15,2013-07-15 21:25:00,
2013-07-15 16:30:00,71.4,68.0,30.06,ESE,121,4.0,7.0,89,0.00,,,1.07,Wunderground v.1.15,2013-07-15 21:30:00,
2013-07-15 16:40:00,71.5,68.1,30.06,SE,131,4.0,6.0,89,0.00,,,1.07,Wunderground v.1.15,2013-07-15 21:40:00,
2013-07-15 16:45:00,71.6,68.2,30.07,ESE,108,5.0,7.0,89,0.00,,,1.07,Wunderground v.1.15,2013-07-15 21:45:00,
2013-07-15 16:50:00,71.6,67.9,30.07,ESE,109,4.0,4.0,88,0.00,,,1.07,Wunderground v.1.15,2013-07-15 21:50:00,
2013-07-15 17:05:00,71.6,67.9,30.06,SE,128,6.0,6.0,88,0.00,,,1.07,Wunderground v.1.15,2013-07-15 22:05:00,
2013-07-15 17:10:00,71.6,67.9,30.06,ESE,111,4.0,4.0,88,0.00,,,1.07,Wunderground v.1.15,2013-07-15 22:10:00,
2013-07-15 17:15:00,71.6,67.9,30.07,East,101,4.0,6.0,88,0.00,,,1.07,Wunderground v.1.15,2013-07-15 22:15:00,
2013-07-15 17:35:00,71.6,67.9,30.06,ENE,61,5.0,5.0,88,0.00,,,1.07,Wunderground v.1.15,2013-07-15 22:35:00,
2013-07-15 17:40:00,71.6,68.2,30.06,ENE,61,5.0,5.0,89,0.00,,,1.07,Wunderground v.1.15,2013-07-15 22:40:00,
2013-07-15 17:50:00,71.7,68.3,30.06,ESE,106,5.0,5.0,89,0.00,,,1.07,Wunderground v.1.15,2013-07-15 22:50:00,
2013-07-15 18:00:00,71.5,67.8,30.06,East,90,5.0,6.0,88,0.00,,,1.07,Wunderground v.1.15,2013-07-15 23:00:00,
2013-07-15 18:05:00,71.5,68.1,30.06,ESE,109,5.0,6.0,89,0.00,,,1.07,Wunderground v.1.15,2013-07-15 23:05:00,
2013-07-15 18:15:00,71.1,67.7,30.06,ESE,113,6.0,9.0,89,0.00,,,1.07,Wunderground v.1.15,2013-07-15 23:15:00,
2013-07-15 18:20:00,71.0,67.6,30.06,ESE,103,6.0,6.0,89,0.00,,,1.07,Wunderground v.1.15,2013-07-15 23:20:00,
2013-07-15 18:35:00,70.4,67.6,30.06,ENE,76,3.0,4.0,91,0.09,,,1.09,Wunderground v.1.15,2013-07-15 23:35:00,
2013-07-15 18:45:00,70.2,67.8,30.06,East,80,4.0,4.0,92,0.07,,,1.10,Wunderground v.1.15,2013-07-15 23:45:00,
2013-07-15 18:55:00,70.2,67.8,30.07,NE,55,3.0,3.0,92,0.06,,,1.11,Wunderground v.1.15,2013-07-15 23:55:00,
2013-07-15 19:05:00,70.0,67.9,30.07,East,91,3.0,3.0,93,0.07,,,1.13,Wunderground v.1.15,2013-07-16 00:05:00,
2013-07-15 19:20:00,70.0,67.9,30.07,East,84,3.0,6.0,93,0.08,,,1.15,Wunderground v.1.15,2013-07-16 00:20:00,
2013-07-15 19:25:00,70.0,67.9,30.07,East,79,3.0,6.0,93,0.07,,,1.15,Wunderground v.1.15,2013-07-16 00:25:00,
2013-07-15 19:35:00,70.0,68.2,30.07,East,89,2.0,3.0,94,0.05,,,1.16,Wunderground v.1.15,2013-07-16 00:35:00,
2013-07-15 19:40:00,70.0,68.2,30.07,East,101,3.0,3.0,94,0.05,,,1.16,Wunderground v.1.15,2013-07-16 00:40:00,
2013-07-15 19:45:00,69.9,68.1,30.08,East,84,3.0,3.0,94,0.05,,,1.17,Wunderground v.1.15,2013-07-16 00:45:00,
2013-07-15 19:50:00,69.9,68.1,30.08,ESE,115,2.0,2.0,94,0.05,,,1.17,Wunderground v.1.15,2013-07-16 00:50:00,
2013-07-15 19:55:00,70.0,68.2,30.07,East,95,2.0,2.0,94,0.04,,,1.17,Wunderground v.1.15,2013-07-16 00:55:00,
2013-07-15 20:00:00,70.0,68.2,30.07,East,95,2.0,2.0,94,0.00,,,1.17,Wunderground v.1.15,2013-07-16 01:00:00,
2013-07-15 20:05:00,70.0,68.5,30.08,East,96,2.0,2.0,95,0.00,,,1.18,Wunderground v.1.15,2013-07-16 01:05:00,
2013-07-15 20:10:00,70.0,68.5,30.08,East,92,2.0,2.0,95,0.00,,,1.18,Wunderground v.1.15,2013-07-16 01:10:00,
2013-07-15 20:15:00,70.0,68.5,30.08,ESE,113,3.0,3.0,95,0.00,,,1.18,Wunderground v.1.15,2013-07-16 01:15:00,
2013-07-15 20:30:00,70.0,68.5,30.07,East,97,4.0,4.0,95,0.00,,,1.18,Wunderground v.1.15,2013-07-16 01:30:00,
2013-07-15 20:35:00,69.9,68.4,30.07,East,86,4.0,5.0,95,0.00,,,1.18,Wunderground v.1.15,2013-07-16 01:35:00,
2013-07-15 20:45:00,69.9,68.4,30.07,East,91,4.0,6.0,95,0.00,,,1.18,Wunderground v.1.15,2013-07-16 01:45:00,
2013-07-15 21:00:00,69.8,68.3,30.08,ESE,105,3.0,4.0,95,0.00,,,1.18,Wunderground v.1.15,2013-07-16 02:00:00,
2013-07-15 21:05:00,69.7,68.2,30.08,ESE,105,2.0,4.0,95,0.00,,,1.18,Wunderground v.1.15,2013-07-16 02:05:00,
2013-07-15 21:10:00,69.7,68.2,30.08,ESE,105,2.0,3.0,95,0.00,,,1.18,Wunderground v.1.15,2013-07-16 02:10:00,
2013-07-15 21:15:00,69.7,68.2,30.08,ESE,105,2.0,3.0,95,0.00,,,1.18,Wunderground v.1.15,2013-07-16 02:15:00,
2013-07-15 21:20:00,69.8,68.3,30.08,East,101,2.0,2.0,95,0.00,,,1.18,Wunderground v.1.15,2013-07-16 02:20:00,
2013-07-15 21:30:00,69.7,68.2,30.09,ESE,103,2.0,2.0,95,0.00,,,1.18,Wunderground v.1.15,2013-07-16 02:30:00,
2013-07-15 21:35:00,69.8,68.3,30.09,East,101,2.0,3.0,95,0.00,,,1.18,Wunderground v.1.15,2013-07-16 02:35:00,
2013-07-15 21:40:00,69.8,68.3,30.09,East,101,3.0,3.0,95,0.00,,,1.18,Wunderground v.1.15,2013-07-16 02:40:00,
2013-07-15 21:50:00,69.8,68.3,30.09,East,97,3.0,3.0,95,0.00,,,1.18,Wunderground v.1.15,2013-07-16 02:50:00,
2013-07-15 21:55:00,69.7,68.2,30.09,East,96,2.0,3.0,95,0.00,,,1.18,Wunderground v.1.15,2013-07-16 02:55:00,
2013-07-15 22:00:00,69.7,68.2,30.09,ESE,104,2.0,3.0,95,0.00,,,1.18,Wunderground v.1.15,2013-07-16 03:00:00,
2013-07-15 22:10:00,69.6,68.1,30.10,East,83,2.0,2.0,95,0.00,,,1.18,Wunderground v.1.15,2013-07-16 03:10:00,
2013-07-15 22:20:00,69.6,68.1,30.11,East,96,2.0,2.0,95,0.00,,,1.18,Wunderground v.1.15,2013-07-16 03:20:00,
2013-07-15 22:30:00,69.7,68.2,30.11,East,96,2.0,2.0,95,0.00,,,1.18,Wunderground v.1.15,2013-07-16 03:30:00,
2013-07-15 22:40:00,69.8,68.3,30.11,East,96,2.0,2.0,95,0.00,,,1.18,Wunderground v.1.15,2013-07-16 03:40:00,
2013-07-15 22:55:00,69.7,68.2,30.12,East,94,3.0,3.0,95,0.00,,,1.18,Wunderground v.1.15,2013-07-16 03:55:00,
2013-07-15 23:05:00,69.6,68.1,30.12,East,94,3.0,5.0,95,0.00,,,1.19,Wunderground v.1.15,2013-07-16 04:05:00,
2013-07-15 23:10:00,69.5,68.0,30.12,East,94,4.0,4.0,95,0.00,,,1.19,Wunderground v.1.15,2013-07-16 04:10:00,
2013-07-15 23:15:00,69.5,68.0,30.12,ENE,72,3.0,4.0,95,0.04,,,1.20,Wunderground v.1.15,2013-07-16 04:15:00,
2013-07-15 23:20:00,69.5,68.0,30.12,East,88,3.0,5.0,95,0.07,,,1.21,Wunderground v.1.15,2013-07-16 04:20:00,
2013-07-15 23:25:00,69.4,67.9,30.12,East,99,4.0,5.0,95,0.07,,,1.21,Wunderground v.1.15,2013-07-16 04:25:00,
2013-07-15 23:30:00,69.4,67.9,30.12,ESE,121,5.0,5.0,95,0.09,,,1.22,Wunderground v.1.15,2013-07-16 04:30:00,
2013-07-15 23:40:00,69.4,67.9,30.12,East,94,4.0,5.0,95,0.10,,,1.24,Wunderground v.1.15,2013-07-16 04:40:00,
2013-07-15 23:45:00,69.4,67.9,30.13,East,93,4.0,7.0,95,0.10,,,1.24,Wunderground v.1.15,2013-07-16 04:45:00,
2013-07-15 23:50:00,69.4,67.9,30.12,East,98,4.0,4.0,95,0.07,,,1.25,Wunderground v.1.15,2013-07-16 04:50:00,
2013-07-15 23:55:00,69.5,68.0,30.12,ESE,102,3.0,4.0,95,0.07,,,1.25,Wunderground v.1.15,2013-07-16 04:55:00,